Time;durP1;ratioP1;P1;durP2;ratioP2;P2;SDS_P1;SDS_P2;PMS_P1;PMS_P2;Temp;Humidity;BMP_temperature;BMP_pressure;BME280_temperature;BME280_humidity;BME280_pressure;Samples;Min_cycle;Max_cycle;Signal;HPM_P1;HPM_P2
2021/05/07 18:12:01;;;;;;;10.20;2.72;;;16.30;37.90;;;;;;5091357;28;20831;-81
2021/05/07 18:14:28;;;;;;;5.20;2.40;;;16.40;39.50;;;;;;5093910;28;20561;-75
2021/05/07 18:16:54;;;;;;;8.35;2.53;;;16.50;39.70;;;;;;5091521;28;20107;-81
2021/05/07 18:19:21;;;;;;;4.50;2.53;;;16.60;41.50;;;;;;5087667;28;20040;-76
2021/05/07 18:21:47;;;;;;;7.88;2.58;;;16.70;41.40;;;;;;5060046;28;20039;-74
2021/05/07 18:24:13;;;;;;;7.70;2.55;;;16.70;40.70;;;;;;5083925;28;20032;-76
2021/05/07 18:26:39;;;;;;;7.28;3.00;;;16.80;40.10;;;;;;5089760;28;20082;-75
2021/05/07 18:29:05;;;;;;;5.63;2.83;;;16.90;39.70;;;;;;5088521;28;20036;-75
2021/05/07 18:31:32;;;;;;;9.45;3.17;;;16.90;39.30;;;;;;5072358;28;20065;-77
2021/05/07 18:34:00;;;;;;;5.97;3.25;;;16.90;39.00;;;;;;5089896;28;20044;-76
2021/05/07 18:36:27;;;;;;;6.50;3.90;;;16.90;38.90;;;;;;5064517;28;20055;-76
2021/05/07 18:38:53;;;;;;;11.63;4.40;;;16.90;38.70;;;;;;5079929;28;20123;-77
2021/05/07 18:41:19;;;;;;;8.70;4.47;;;16.90;38.60;;;;;;5092270;28;20105;-78
2021/05/07 18:43:46;;;;;;;8.63;4.40;;;16.90;38.50;;;;;;5073433;28;20047;-78
2021/05/07 18:46:14;;;;;;;10.68;4.88;;;16.90;38.50;;;;;;5091794;28;20122;-86
2021/05/07 18:48:41;;;;;;;11.27;4.70;;;16.90;38.40;;;;;;5073090;28;20043;-78
2021/05/07 18:51:07;;;;;;;13.20;5.18;;;16.90;38.40;;;;;;5071860;28;20044;-79
2021/05/07 18:53:33;;;;;;;8.25;5.05;;;16.90;38.40;;;;;;5090380;28;20072;-79
2021/05/07 18:56:03;;;;;;;11.05;4.95;;;16.90;38.50;;;;;;5090353;28;20028;-79
2021/05/07 18:58:33;;;;;;;7.18;4.70;;;16.90;38.50;;;;;;5090364;28;20094;-80
2021/05/07 19:01:00;;;;;;;10.35;4.97;;;16.80;38.50;;;;;;5089756;28;20090;-77
2021/05/07 19:03:26;;;;;;;12.70;4.97;;;16.80;39.10;;;;;;5089083;28;20396;-77
2021/05/07 19:05:53;;;;;;;11.15;4.30;;;16.80;38.40;;;;;;5089903;28;20516;-75
2021/05/07 19:08:19;;;;;;;9.00;4.30;;;16.80;38.60;;;;;;5089482;28;20101;-76
2021/05/07 19:10:45;;;;;;;8.48;4.13;;;16.80;38.50;;;;;;5089670;28;20060;-76
2021/05/07 19:13:12;;;;;;;8.80;4.30;;;16.70;38.50;;;;;;5090647;28;20047;-75
2021/05/07 19:15:40;;;;;;;7.80;3.92;;;16.70;38.60;;;;;;5089668;28;20493;-72
2021/05/07 19:18:06;;;;;;;11.00;4.90;;;16.70;38.60;;;;;;5089514;28;20036;-76
2021/05/07 19:20:32;;;;;;;7.22;4.18;;;16.70;38.70;;;;;;5090482;28;20054;-77
2021/05/07 19:22:59;;;;;;;8.30;4.72;;;16.70;38.70;;;;;;5083640;28;20032;-77
2021/05/07 19:25:25;;;;;;;9.85;4.10;;;16.70;38.60;;;;;;5083232;28;20057;-76
2021/05/07 19:27:51;;;;;;;12.25;4.68;;;16.60;38.60;;;;;;5068653;28;20468;-76
2021/05/07 19:30:19;;;;;;;7.25;4.20;;;16.60;38.70;;;;;;5075144;28;20037;-76
2021/05/07 19:32:46;;;;;;;12.48;4.45;;;16.60;38.70;;;;;;5064724;28;20409;-78
2021/05/07 19:35:12;;;;;;;9.02;4.97;;;16.60;38.80;;;;;;5063774;28;20029;-74
2021/05/07 19:37:40;;;;;;;10.18;4.80;;;16.50;38.80;;;;;;5061655;28;20028;-78
2021/05/07 19:40:09;;;;;;;9.40;4.82;;;16.50;38.90;;;;;;5052598;28;20043;-79
2021/05/07 19:42:35;;;;;;;12.13;5.05;;;16.50;38.80;;;;;;5055640;28;20024;-79
2021/05/07 19:45:02;;;;;;;9.40;5.05;;;16.50;38.90;;;;;;5061124;28;20036;-78
2021/05/07 19:47:28;;;;;;;6.97;5.05;;;16.50;38.90;;;;;;5074437;28;20044;-80
2021/05/07 19:49:54;;;;;;;10.60;4.70;;;16.40;39.00;;;;;;5072894;28;20090;-73
2021/05/07 19:52:20;;;;;;;9.13;4.93;;;16.40;39.10;;;;;;5073634;28;20120;-74
2021/05/07 19:54:47;;;;;;;10.50;4.97;;;16.40;39.10;;;;;;5074264;28;20036;-75
2021/05/07 19:57:13;;;;;;;10.38;4.78;;;16.30;39.10;;;;;;5075376;28;20123;-72
2021/05/07 19:59:39;;;;;;;10.70;4.80;;;16.30;39.10;;;;;;5073684;28;20113;-73
2021/05/07 20:02:06;;;;;;;11.65;5.10;;;16.30;39.20;;;;;;5074057;28;20390;-73
2021/05/07 20:04:33;;;;;;;7.85;4.55;;;16.30;39.10;;;;;;5074835;28;20080;-72
2021/05/07 20:07:00;;;;;;;11.45;4.90;;;16.30;39.80;;;;;;5056820;28;20037;-72
2021/05/07 20:09:27;;;;;;;10.52;4.47;;;16.30;39.20;;;;;;5073889;28;20481;-73
2021/05/07 20:11:53;;;;;;;9.95;4.38;;;16.20;39.20;;;;;;5056370;28;20056;-73
2021/05/07 20:14:21;;;;;;;8.98;4.43;;;16.20;39.20;;;;;;5073874;28;20127;-72
2021/05/07 20:16:47;;;;;;;12.77;4.85;;;16.10;39.20;;;;;;5074444;28;20034;-74
2021/05/07 20:19:14;;;;;;;9.65;4.53;;;16.10;39.20;;;;;;5073164;28;20049;-72
2021/05/07 20:21:40;;;;;;;11.40;4.55;;;16.10;39.20;;;;;;5072935;28;20037;-70
2021/05/07 20:24:07;;;;;;;8.68;4.40;;;16.10;40.00;;;;;;5073682;28;20146;-74
2021/05/07 20:26:33;;;;;;;7.68;4.63;;;16.00;39.40;;;;;;5056942;28;20551;-73
2021/05/07 20:29:00;;;;;;;11.38;4.47;;;16.00;39.50;;;;;;5073815;28;20052;-74
2021/05/07 20:31:26;;;;;;;9.40;4.75;;;16.00;39.50;;;;;;5073530;28;20037;-74
2021/05/07 20:33:54;;;;;;;13.75;5.18;;;15.90;39.50;;;;;;5072286;28;20040;-73
2021/05/07 20:36:21;;;;;;;9.13;4.75;;;15.90;39.60;;;;;;5072652;28;20059;-72
2021/05/07 20:38:47;;;;;;;13.60;4.68;;;15.90;39.60;;;;;;5074006;28;20047;-72
2021/05/07 20:41:13;;;;;;;6.85;4.75;;;15.90;39.70;;;;;;5072483;28;20070;-72
2021/05/07 20:43:39;;;;;;;10.77;4.63;;;15.80;39.70;;;;;;5073601;28;20131;-72
2021/05/07 20:46:06;;;;;;;11.65;4.97;;;15.80;39.80;;;;;;5072487;28;20512;-70
2021/05/07 20:48:33;;;;;;;18.50;5.05;;;15.70;39.80;;;;;;5073636;28;20066;-72
2021/05/07 20:50:59;;;;;;;11.30;5.65;;;15.70;39.90;;;;;;5072152;28;20040;-71
2021/05/07 20:53:25;;;;;;;9.68;4.97;;;15.70;39.90;;;;;;5073624;28;20049;-73
2021/05/07 20:55:51;;;;;;;8.15;4.32;;;15.70;39.90;;;;;;5074069;28;20108;-72
2021/05/07 20:58:17;;;;;;;11.57;4.85;;;15.70;39.90;;;;;;5073685;28;20405;-74
2021/05/07 21:00:43;;;;;;;9.85;5.60;;;15.70;39.90;;;;;;5073377;28;20032;-72
2021/05/07 21:03:10;;;;;;;11.18;4.53;;;15.70;40.00;;;;;;5055897;28;20036;-73
2021/05/07 21:05:37;;;;;;;9.85;5.15;;;15.70;40.00;;;;;;5073641;28;20115;-71
2021/05/07 21:08:07;;;;;;;8.35;5.15;;;15.60;40.00;;;;;;5072329;28;20056;-74
2021/05/07 21:10:35;;;;;;;8.00;4.57;;;15.60;40.00;;;;;;5039043;28;20067;-72
2021/05/07 21:13:01;;;;;;;8.70;4.30;;;15.60;40.00;;;;;;5072750;28;20044;-73
2021/05/07 21:15:28;;;;;;;10.63;4.88;;;15.60;40.50;;;;;;5072551;28;20039;-72
2021/05/07 21:17:54;;;;;;;11.20;4.28;;;15.50;40.10;;;;;;5073383;28;20511;-72
2021/05/07 21:20:21;;;;;;;10.50;4.70;;;15.50;40.10;;;;;;5072047;28;20488;-75
2021/05/07 21:22:47;;;;;;;8.70;4.65;;;15.50;40.20;;;;;;5071871;28;20028;-73
2021/05/07 21:25:13;;;;;;;9.45;4.85;;;15.50;40.20;;;;;;5072206;28;20047;-73
2021/05/07 21:27:39;;;;;;;9.90;4.60;;;15.50;40.30;;;;;;5073334;28;20044;-73
2021/05/07 21:30:07;;;;;;;9.93;4.72;;;15.50;40.30;;;;;;5073238;28;20079;-74
2021/05/07 21:32:33;;;;;;;7.15;4.43;;;15.40;40.30;;;;;;5073168;28;20040;-74
2021/05/07 21:35:02;;;;;;;13.15;5.20;;;15.50;40.40;;;;;;5073563;28;20044;-73
2021/05/07 21:37:28;;;;;;;10.63;5.45;;;15.40;40.30;;;;;;5071940;28;20032;-73
2021/05/07 21:39:55;;;;;;;8.95;4.60;;;15.40;40.40;;;;;;5072181;28;20172;-74
2021/05/07 21:42:21;;;;;;;8.98;4.35;;;15.40;40.30;;;;;;5073573;28;20028;-75
2021/05/07 21:44:52;;;;;;;8.50;4.40;;;15.40;40.40;;;;;;5071679;28;20036;-74
2021/05/07 21:47:18;;;;;;;7.93;4.57;;;15.30;40.40;;;;;;5072989;28;20036;-72
2021/05/07 21:49:44;;;;;;;10.77;5.00;;;15.30;40.50;;;;;;5071448;28;20048;-73
2021/05/07 21:52:10;;;;;;;10.73;4.43;;;15.30;40.50;;;;;;5054775;28;20082;-74
2021/05/07 21:54:36;;;;;;;7.30;4.35;;;15.30;40.50;;;;;;5055112;28;20412;-72
2021/05/07 21:57:03;;;;;;;12.98;4.97;;;15.30;40.50;;;;;;5073088;28;20157;-75
2021/05/07 21:59:30;;;;;;;8.93;4.30;;;15.30;40.50;;;;;;5071752;28;20041;-75
2021/05/07 22:01:56;;;;;;;9.70;4.63;;;15.30;40.60;;;;;;5071669;28;20036;-75
2021/05/07 22:04:22;;;;;;;12.05;4.93;;;15.30;40.60;;;;;;5071342;28;20063;-75
2021/05/07 22:06:48;;;;;;;11.68;4.90;;;15.30;40.60;;;;;;5071227;28;20025;-74
2021/05/07 22:09:16;;;;;;;6.20;4.70;;;15.20;40.60;;;;;;5072599;28;20036;-76
2021/05/07 22:11:43;;;;;;;8.40;4.95;;;15.20;40.60;;;;;;5071727;28;20113;-76
2021/05/07 22:14:11;;;;;;;11.45;5.63;;;15.20;40.70;;;;;;5073154;28;20041;-75
2021/05/07 22:16:38;;;;;;;9.10;5.05;;;15.20;40.80;;;;;;5071158;28;20119;-75
2021/05/07 22:19:05;;;;;;;8.50;5.07;;;15.20;40.80;;;;;;5071649;28;20036;-75
2021/05/07 22:21:32;;;;;;;8.05;4.60;;;15.20;40.80;;;;;;5054847;28;20033;-74
2021/05/07 22:23:59;;;;;;;11.13;5.05;;;15.10;40.80;;;;;;5055112;28;20170;-75
2021/05/07 22:26:26;;;;;;;8.35;5.13;;;15.20;40.90;;;;;;5071411;28;20432;-73
2021/05/07 22:28:53;;;;;;;10.48;5.18;;;15.10;40.90;;;;;;5071521;28;20047;-75
2021/05/07 22:31:20;;;;;;;8.05;4.97;;;15.10;41.00;;;;;;5054433;28;20040;-74
2021/05/07 22:33:46;;;;;;;7.25;4.63;;;15.10;41.00;;;;;;5055059;28;20121;-74
2021/05/07 22:36:14;;;;;;;10.77;5.05;;;15.10;41.00;;;;;;5072296;28;20109;-74
2021/05/07 22:38:41;;;;;;;7.72;5.32;;;15.10;41.10;;;;;;5070938;28;20076;-74
2021/05/07 22:41:08;;;;;;;7.50;4.88;;;15.10;41.10;;;;;;5070971;28;20044;-74
2021/05/07 22:43:35;;;;;;;10.07;4.70;;;15.10;41.70;;;;;;5070931;28;20524;-73
2021/05/07 22:46:02;;;;;;;12.68;4.50;;;15.10;41.30;;;;;;5071189;28;20028;-75
2021/05/07 22:48:29;;;;;;;12.40;5.72;;;15.00;41.20;;;;;;5071216;28;20045;-74
2021/05/07 22:50:55;;;;;;;8.57;5.00;;;15.00;41.20;;;;;;5072173;28;20045;-74
2021/05/07 22:53:21;;;;;;;11.10;5.15;;;15.00;41.20;;;;;;5070855;28;20484;-74
2021/05/07 22:55:48;;;;;;;10.13;5.15;;;15.00;41.30;;;;;;5054142;28;20036;-74
2021/05/07 22:58:15;;;;;;;12.10;4.95;;;15.00;41.40;;;;;;5074033;28;20123;-72
2021/05/07 23:00:42;;;;;;;8.20;5.38;;;15.00;41.40;;;;;;5058120;28;20119;-72
2021/05/07 23:03:08;;;;;;;9.20;5.22;;;14.90;41.40;;;;;;5074531;28;20029;-73
2021/05/07 23:05:34;;;;;;;7.97;4.95;;;14.90;41.40;;;;;;5074946;28;20037;-72
2021/05/07 23:08:00;;;;;;;6.63;4.55;;;15.00;41.60;;;;;;5075752;28;20062;-72
2021/05/07 23:10:27;;;;;;;9.18;4.70;;;14.90;41.50;;;;;;5075451;28;20057;-73
2021/05/07 23:12:53;;;;;;;11.38;5.05;;;14.90;41.60;;;;;;5074422;28;20036;-73
2021/05/07 23:15:19;;;;;;;9.70;4.68;;;14.90;41.60;;;;;;5075648;28;20089;-73
2021/05/07 23:17:46;;;;;;;6.07;4.35;;;14.90;41.80;;;;;;5057649;28;20054;-72
2021/05/07 23:20:17;;;;;;;12.05;5.03;;;14.90;41.80;;;;;;5074328;28;20135;-72
2021/05/07 23:22:44;;;;;;;7.70;4.78;;;14.90;41.90;;;;;;5058110;28;20074;-73
2021/05/07 23:25:11;;;;;;;6.38;4.22;;;14.90;41.90;;;;;;5074090;28;20036;-73
2021/05/07 23:27:37;;;;;;;5.97;4.32;;;14.80;42.00;;;;;;5074123;28;20043;-72
2021/05/07 23:30:06;;;;;;;11.77;4.60;;;14.80;42.00;;;;;;5057523;28;20040;-73
2021/05/07 23:32:32;;;;;;;7.93;4.10;;;14.80;42.10;;;;;;5074486;28;20132;-74
2021/05/07 23:34:58;;;;;;;7.93;4.70;;;14.80;42.20;;;;;;5075460;28;20040;-72
2021/05/07 23:37:24;;;;;;;10.38;4.47;;;14.80;42.20;;;;;;5057493;28;20033;-73
2021/05/07 23:39:51;;;;;;;7.32;4.55;;;14.70;42.30;;;;;;5073719;28;20435;-73
2021/05/07 23:42:17;;;;;;;7.68;4.60;;;14.70;42.30;;;;;;5073689;28;20032;-74
2021/05/07 23:44:43;;;;;;;10.60;4.75;;;14.70;42.50;;;;;;5057214;28;20040;-73
2021/05/07 23:47:11;;;;;;;8.75;4.35;;;14.70;42.50;;;;;;5075102;28;20059;-72
2021/05/07 23:49:41;;;;;;;11.70;4.50;;;14.70;42.60;;;;;;5073940;28;20036;-74
2021/05/07 23:52:08;;;;;;;10.77;4.57;;;14.70;42.60;;;;;;5056794;28;20562;-73
2021/05/07 23:54:35;;;;;;;7.85;4.50;;;14.60;42.70;;;;;;5056974;28;20039;-72
2021/05/07 23:57:01;;;;;;;6.47;4.13;;;14.60;42.80;;;;;;5073410;28;20115;-73
2021/05/07 23:59:27;;;;;;;6.82;4.88;;;14.60;42.80;;;;;;5074793;28;20075;-73
